Latest Weather Observations for Merimbula

IDN60801

Issued at 1:22 pm EST Thursday 28 May 2020 (issued every 10 minutes, with the page automatically refreshed every 10 minutes)

About weather observations | Map of weather stations | Latest weather observations for NSW | Other Formats
Station Details ID: 069147 Name: MERIMBULA AIRPORT AWS Lat: -36.91 Lon: 149.90 Height: 1.5 m
Data from the previous 72 hours. | See also: Recent months at Merimbula
Date/Time
EST
Temp
°C
App
Temp
°C
Dew
Point
°C
Rel
Hum
%
Delta-T
°C
Wind Press
QNH
hPa
Press
MSL
hPa
Rain since
9am
mm
Dir  Spd
km/h
Gust
km/h
Spd
kts
Gust
kts
28/01:00pm 19.1 17.4 11.2 60 4.3 ESE 11 19 6 10 1019.8 1019.8 0.0
28/12:30pm 18.8 16.8 11.4 62 4.0 ESE 13 20 7 11 1020.0 1020.0 0.0
28/12:00pm 18.5 16.4 11.1 62 4.0 ESE 13 20 7 11 1020.4 1020.4 0.0
28/11:30am 18.2 16.2 11.5 65 3.7 ESE 13 19 7 10 1020.8 1020.8 0.0
28/11:00am 18.1 16.6 10.7 62 4.0 E 9 13 5 7 1021.1 1021.1 0.0
28/10:30am 18.1 18.2 11.4 65 3.6 SE 2 11 1 6 1021.2 1021.2 0.0
28/10:00am 16.2 16.8 12.0 76 2.3 CALM 0 0 0 0 1021.3 1021.3 0.0
28/09:30am 14.7 14.9 10.7 77 2.1 CALM 0 0 0 0 1021.3 1021.3 0.0
28/09:00am 12.4 12.4 11.0 91 0.7 SW 2 6 1 3 1021.2 1021.2 0.0
28/08:30am 10.8 11.0 10.6 99 0.1 CALM 0 0 0 0 1020.9 1020.9 0.0
28/08:00am 8.3 7.5 8.2 99 0.0 WSW 2 6 1 3 1020.7 1020.7 0.0
28/07:30am 7.4 6.8 7.3 99 0.0 CALM 0 4 0 2 1020.5 1020.5 0.0
28/07:00am 7.2 5.4 7.1 99 0.0 SW 6 7 3 4 1020.2 1020.2 0.0
28/06:30am 7.9 7.4 7.8 99 0.0 CALM 0 0 0 0 1019.9 1019.9 0.0
28/06:00am 7.5 6.9 7.4 99 0.0 CALM 0 0 0 0 1019.7 1019.7 0.0
28/05:30am 7.6 6.3 7.5 99 0.0 SSW 4 7 2 4 1019.4 1019.4 0.0
28/05:00am 7.3 6.7 7.2 99 0.0 CALM 0 0 0 0 1019.1 1019.1 0.0
28/04:30am 7.7 7.1 7.6 99 0.0 CALM 0 0 0 0 1018.9 1018.9 0.0
28/04:00am 7.6 6.6 7.5 99 0.0 S 2 6 1 3 1019.1 1019.1 0.0
28/03:30am 7.8 6.5 7.7 99 0.0 WSW 4 7 2 4 1019.2 1019.2 0.0
28/03:00am 8.1 7.6 8.0 99 0.0 CALM 0 0 0 0 1019.1 1019.1 0.0
28/02:30am 8.1 6.5 8.0 99 0.0 SW 6 11 3 6 1019.3 1019.3 0.0
28/02:00am 8.5 6.8 8.4 99 0.0 SW 7 9 4 5 1019.4 1019.4 0.0
28/01:30am 8.4 7.6 8.3 99 0.0 WSW 2 6 1 3 1019.4 1019.4 0.0
28/01:00am 8.6 7.1 8.5 99 0.0 SSW 6 7 3 4 1019.2 1019.2 0.0
28/12:30am 8.3 7.9 8.2 99 0.0 CALM 0 0 0 0 1019.7 1019.7 0.0
28/12:00am 8.5 8.1 8.4 99 0.0 CALM 0 0 0 0 1019.7 1019.7 0.0
 
Date/Time
EST
Temp
°C
App
Temp
°C
Dew
Point
°C
Rel
Hum
%
Delta-T
°C
Wind Press
QNH
hPa
Press
MSL
hPa
Rain since
9am
mm
Dir  Spd
km/h
Gust
km/h
Spd
kts
Gust
kts
27/11:30pm 8.4 6.9 8.3 99 0.0 SW 6 6 3 3 1019.9 1019.9 0.0
27/11:00pm 8.2 7.7 7.9 98 0.1 CALM 0 0 0 0 1020.1 1020.1 0.0
27/10:30pm 8.5 7.8 8.4 99 0.0 NW 2 9 1 5 1020.3 1020.3 0.0
27/10:00pm 8.7 8.3 8.3 97 0.2 CALM 0 0 0 0 1020.5 1020.5 0.0
27/09:30pm 9.2 8.8 8.4 95 0.4 CALM 0 0 0 0 1020.4 1020.4 0.0
27/09:00pm 10.0 8.7 9.2 95 0.4 WNW 6 7 3 4 1020.5 1020.5 0.0
27/08:30pm 10.5 9.3 9.7 95 0.4 NW 6 7 3 4 1020.4 1020.4 0.0
27/08:00pm 10.8 10.1 9.9 94 0.5 WNW 4 9 2 5 1020.2 1020.2 0.0
27/07:30pm 11.2 11.2 9.8 91 0.7 CALM 0 0 0 0 1020.2 1020.2 0.0
27/07:00pm 12.2 11.3 10.8 91 0.7 NW 6 9 3 5 1020.2 1020.2 0.0
27/06:30pm 12.2 12.0 10.4 89 0.9 W 2 7 1 4 1020.2 1020.2 0.0
27/06:00pm 12.7 12.8 10.2 85 1.3 CALM 0 0 0 0 1020.1 1020.1 0.0
27/05:30pm 13.8 14.0 10.4 80 1.8 CALM 0 0 0 0 1019.9 1019.9 0.0
27/05:00pm 14.9 14.0 11.3 79 1.9 NNE 7 11 4 6 1019.8 1019.8 0.0
27/04:30pm 15.6 14.4 11.6 77 2.2 NNE 9 17 5 9 1019.7 1019.7 0.0
27/04:00pm 15.9 14.2 11.3 74 2.5 NE 11 15 6 8 1019.8 1019.8 0.0
27/03:30pm 16.4 15.3 11.8 74 2.5 NE 9 13 5 7 1019.7 1019.7 0.0
27/03:00pm 16.3 13.8 11.2 72 2.7 NE 15 24 8 13 1019.7 1019.7 0.0
27/02:30pm 17.8 15.4 11.4 66 3.5 NE 15 22 8 12 1019.7 1019.7 0.0
27/02:00pm 16.6 14.9 11.3 71 2.8 NE 11 19 6 10 1020.0 1020.0 0.0
27/01:30pm 17.4 15.6 12.1 71 2.9 NE 13 20 7 11 1020.0 1020.0 0.0
27/01:00pm 17.8 16.0 12.0 69 3.2 NE 13 20 7 11 1020.4 1020.4 0.0
27/12:30pm 17.9 15.6 10.5 62 4.0 NE 13 20 7 11 1020.9 1020.9 0.0
27/12:00pm 17.7 15.5 10.8 64 3.7 NE 13 20 7 11 1021.2 1021.2 0.0
27/11:30am 17.7 15.5 10.8 64 3.7 NE 13 19 7 10 1021.7 1021.7 0.0
27/11:00am 16.1 15.3 11.7 75 2.4 E 7 11 4 6 1022.3 1022.3 0.0
27/10:30am 17.7 17.5 11.9 69 3.2 ENE 4 13 2 7 1022.8 1022.8 0.0
27/10:00am 15.7 16.0 10.9 73 2.5 CALM 0 0 0 0 1022.9 1022.9 0.0
27/09:30am 13.3 13.5 10.7 84 1.4 CALM 0 0 0 0 1023.1 1023.1 0.0
27/09:00am 11.0 10.9 9.6 91 0.7 CALM 0 0 0 0 1023.0 1023.0 0.0
27/08:30am 9.6 9.5 9.5 99 0.0 CALM 0 0 0 0 1023.3 1023.3 0.0
27/08:00am 7.7 6.4 7.6 99 0.0 SW 4 7 2 4 1023.4 1023.4 0.0
27/07:30am 6.8 5.3 6.7 99 0.0 SSW 4 7 2 4 1023.3 1023.3 0.0
27/07:00am 7.0 5.0 6.9 99 0.0 WSW 7 7 4 4 1023.2 1023.2 0.0
27/06:30am 7.1 4.7 7.0 99 0.0 WSW 9 9 5 5 1023.0 1023.0 0.0
27/06:00am 7.8 5.9 7.7 99 0.0 SW 7 9 4 5 1022.9 1022.9 0.0
27/05:30am 7.6 5.8 7.2 97 0.2 SW 6 7 3 4 1023.0 1023.0 0.0
27/05:00am 8.3 7.8 7.7 96 0.3 CALM 0 0 0 0 1022.9 1022.9 0.0
27/04:30am 8.8 7.9 7.9 94 0.4 SW 2 7 1 4 1022.8 1022.8 0.0
27/04:00am 9.8 7.9 8.9 94 0.4 SSW 9 11 5 6 1023.1 1023.1 0.0
27/03:30am 10.5 8.7 9.6 94 0.5 SW 9 11 5 6 1023.3 1023.3 0.0
27/03:00am 10.3 8.9 9.4 94 0.4 SW 7 11 4 6 1023.6 1023.6 0.0
27/02:30am 10.3 8.9 9.7 96 0.3 SW 7 11 4 6 1023.9 1023.9 0.0
27/02:00am 9.3 8.6 8.7 96 0.3 WNW 2 6 1 3 1024.1 1024.1 0.0
27/01:30am 9.7 8.2 9.2 97 0.2 SW 7 9 4 5 1024.3 1024.3 0.0
27/01:00am 10.4 8.6 9.6 95 0.4 W 9 17 5 9 1024.5 1024.5 0.0
27/12:30am 10.1 9.0 8.4 89 0.8 W 4 7 2 4 1024.6 1024.6 0.0
27/12:00am 11.6 10.3 9.9 89 0.9 SSW 7 9 4 5 1024.6 1024.6 0.0
 
Date/Time
EST
Temp
°C
App
Temp
°C
Dew
Point
°C
Rel
Hum
%
Delta-T
°C
Wind Press
QNH
hPa
Press
MSL
hPa
Rain since
9am
mm
Dir  Spd
km/h
Gust
km/h
Spd
kts
Gust
kts
26/11:30pm 12.5 11.5 10.9 90 0.8 W 7 9 4 5 1024.8 1024.8 0.0
26/11:00pm 12.4 12.6 10.6 89 0.9 CALM 0 0 0 0 1025.3 1025.3 0.0
26/10:30pm 12.4 12.7 10.8 90 0.8 CALM 0 0 0 0 1025.3 1025.3 0.0
26/10:00pm 12.3 11.4 10.5 89 0.9 NW 6 7 3 4 1025.2 1025.2 0.0
26/09:30pm 12.4 11.5 10.5 88 1.0 SW 6 7 3 4 1025.3 1025.3 0.0
26/09:00pm 12.6 11.7 10.8 89 0.9 NNW 6 13 3 7 1025.4 1025.4 0.0
26/08:30pm 12.8 12.0 10.9 88 1.0 WNW 6 7 3 4 1025.5 1025.5 0.0
26/08:00pm 13.1 13.4 11.0 87 1.1 CALM 0 0 0 0 1025.4 1025.4 0.0
26/07:30pm 13.6 14.0 11.3 86 1.2 CALM 0 0 0 0 1025.3 1025.3 0.0
26/07:00pm 14.0 14.5 11.5 85 1.3 CALM 0 0 0 0 1025.3 1025.3 0.0
26/06:30pm 14.3 14.8 11.6 84 1.4 CALM 0 0 0 0 1025.0 1025.0 0.0
26/06:00pm 14.7 15.1 11.1 79 1.9 CALM 0 0 0 0 1025.0 1025.0 0.0
26/05:30pm 15.1 14.1 11.1 77 2.1 SW 7 9 4 5 1025.0 1025.0 0.0
26/05:00pm 15.6 14.7 11.4 76 2.2 S 7 13 4 7 1024.8 1024.8 0.0
26/04:30pm 15.9 14.7 11.5 75 2.4 SSE 9 17 5 9 1024.7 1024.7 0.0
26/04:00pm 16.2 14.0 10.7 70 2.9 SE 13 20 7 11 1024.7 1024.7 0.0
26/03:30pm 16.4 14.1 10.5 68 3.1 SE 13 20 7 11 1024.5 1024.5 0.0
26/03:00pm 17.1 14.6 10.9 67 3.3 SE 15 22 8 12 1024.4 1024.4 0.0
26/02:30pm 17.1 14.8 10.5 65 3.5 SE 13 20 7 11 1024.4 1024.4 0.0
26/02:00pm 17.8 15.4 9.9 60 4.2 ESE 13 20 7 11 1024.7 1024.7 0.0
26/01:30pm 18.7 16.4 10.5 59 4.4 SE 13 19 7 10 1025.0 1025.0 0.0
26/01:00pm 18.2 16.9 10.1 59 4.3 SW 7 13 4 7 1025.2 1025.2 0.0
26/12:30pm 17.8 15.7 9.9 60 4.2 S 11 15 6 8 1025.6 1025.6 0.0
26/12:00pm 17.8 16.3 10.4 62 3.9 SSE 9 15 5 8 1025.8 1025.8 0.0
26/11:30am 17.6 16.1 10.5 63 3.8 SSE 9 15 5 8 1026.5 1026.5 0.0
26/11:00am 17.0 15.9 10.8 67 3.3 SW 7 13 4 7 1026.8 1026.8 0.0
26/10:30am 16.6 15.7 11.5 72 2.8 S 7 11 4 6 1027.1 1027.1 0.0
26/10:00am 15.9 14.7 11.5 75 2.4 SW 9 15 5 8 1027.2 1027.2 0.0
26/09:30am 15.5 14.2 11.3 76 2.3 SSW 9 13 5 7 1027.1 1027.1 0.0
26/09:00am 15.3 13.3 11.5 78 2.0 SW 13 22 7 12 1026.9 1026.9 0.0
26/08:30am 13.8 12.0 11.0 83 1.5 SW 11 17 6 9 1026.8 1026.8 0.0
26/08:00am 13.3 11.2 11.0 86 1.2 SW 13 19 7 10 1026.6 1026.6 0.0
26/07:30am 13.1 11.3 10.8 86 1.2 SSW 11 19 6 10 1026.5 1026.5 0.0
26/07:00am 13.0 11.8 10.4 84 1.3 SW 7 11 4 6 1026.2 1026.2 0.0
26/06:30am 13.0 11.4 10.2 83 1.4 SW 9 17 5 9 1026.1 1026.1 0.0
26/06:00am 12.9 11.3 10.1 83 1.4 SW 9 13 5 7 1026.0 1026.0 0.0
26/05:30am 12.6 11.0 10.1 85 1.3 SW 9 15 5 8 1025.6 1025.6 0.0
26/05:00am 12.6 10.9 10.0 84 1.3 SW 9 19 5 10 1025.3 1025.3 0.0
26/04:30am 12.5 10.4 9.9 84 1.3 SW 11 15 6 8 1025.2 1025.2 0.0
26/04:00am 12.7 10.6 9.9 83 1.4 SW 11 19 6 10 1025.3 1025.3 0.0
26/03:30am 13.0 10.5 9.8 81 1.6 SW 13 20 7 11 1025.3 1025.3 0.0
26/03:00am 13.1 11.0 9.9 81 1.6 SW 11 19 6 10 1025.6 1025.6 0.0
26/02:30am 13.2 10.7 9.8 80 1.7 SW 13 22 7 12 1025.5 1025.5 0.0
26/02:00am 13.4 11.3 9.8 79 1.8 SW 11 15 6 8 1025.6 1025.6 0.0
26/01:30am 13.4 11.3 9.6 78 1.9 SW 11 15 6 8 1025.8 1025.8 0.0
26/01:00am 13.5 11.4 9.6 77 2.0 SW 11 15 6 8 1025.8 1025.8 0.0
26/12:30am 13.3 11.5 9.5 78 1.9 SW 9 13 5 7 1025.7 1025.7 0.0
26/12:00am 13.3 11.5 9.5 78 1.9 SW 9 15 5 8 1025.8 1025.8 0.0
 
Date/Time
EST
Temp
°C
App
Temp
°C
Dew
Point
°C
Rel
Hum
%
Delta-T
°C
Wind Press
QNH
hPa
Press
MSL
hPa
Rain since
9am
mm
Dir  Spd
km/h
Gust
km/h
Spd
kts
Gust
kts
25/11:30pm 13.1 10.5 9.5 79 1.8 SW 13 20 7 11 1025.8 1025.8 0.0
25/11:00pm 13.2 11.1 9.6 79 1.8 SW 11 19 6 10 1025.8 1025.8 0.0
25/10:30pm 13.0 10.8 9.3 78 1.9 SW 11 17 6 9 1025.6 1025.6 0.0
25/10:00pm 13.3 11.5 9.5 78 1.9 SW 9 17 5 9 1025.6 1025.6 0.0
25/09:30pm 13.3 10.8 9.7 79 1.8 SW 13 17 7 9 1025.6 1025.6 0.0
25/09:00pm 13.2 10.7 9.6 79 1.8 SW 13 20 7 11 1025.4 1025.4 0.0
25/08:30pm 13.3 10.8 9.7 79 1.8 SW 13 19 7 10 1025.4 1025.4 0.0
25/08:00pm 13.4 10.2 9.8 79 1.8 SW 17 26 9 14 1025.1 1025.1 0.0
25/07:30pm 13.3 11.2 9.7 79 1.8 SW 11 17 6 9 1024.8 1024.8 0.0
25/07:00pm 13.2 11.0 9.5 78 1.9 SW 11 17 6 9 1024.4 1024.4 0.0
25/06:30pm 13.2 11.1 9.6 79 1.8 SW 11 20 6 11 1024.2 1024.2 0.0
25/06:00pm 13.3 11.6 9.7 79 1.8 WSW 9 13 5 7 1023.9 1023.9 0.0
25/05:30pm 12.9 10.7 9.5 80 1.7 SW 11 17 6 9 1023.4 1023.4 0.0
25/05:00pm 13.6 11.0 9.5 76 2.1 SW 13 24 7 13 1023.2 1023.2 0.0
25/04:30pm 14.2 11.2 9.4 73 2.5 SSW 15 26 8 14 1023.1 1023.1 0.0
25/04:00pm 14.5 11.3 9.9 74 2.4 SSW 17 30 9 16 1023.1 1023.1 0.0
25/03:30pm 14.7 11.1 9.9 73 2.5 SSW 19 28 10 15 1023.0 1023.0 0.0
25/03:00pm 14.9 11.6 9.7 71 2.7 SSW 17 28 9 15 1022.9 1022.9 0.0
25/02:30pm 14.6 10.9 10.2 75 2.3 SSW 20 33 11 18 1022.8 1022.8 0.0
25/02:00pm 14.3 10.9 10.7 79 1.9 SSW 19 30 10 16 1022.6 1022.6 0.0
25/01:30pm 13.8 10.9 11.1 84 1.4 SSW 17 28 9 15 1022.7 1022.7 0.0

Other formats

Comma delimited format used in spreadsheet applications
http://www.bom.gov.au/fwo/IDN60801/IDN60801.95929.axf

JavaScript Object Notation format (JSON) in row-major order
http://www.bom.gov.au/fwo/IDN60801/IDN60801.95929.json

Data quality

Most of these data are generated automatically and are frequently updated. Quality checks on data are not normally performed. It is possible for incorrect values to appear. Refer to information at About Latest Weather Observations and please check the disclaimer before using these data.